Terminal Aerodrome Forecast
Issued by NWS

Home | Current Version | Previous Version | Graphics & Text | Print | Product List | Glossary On
Versions: 1 2 3 4 5 6 7 8 9 10 11 12 13 14
000
FTUS43 KOAX 271120
TAFCDR
TAF
KCDR 271120Z 2712/2812 19025G35KT P6SM SCT080 BKN200
     FM271600 23015G25KT P6SM SCT080
     FM271900 27015G25KT P6SM VCTS BKN080CB
     FM280200 33015G22KT P6SM SCT100
     FM280500 34005KT P6SM BKN200=

USA.gov is the U.S. government's official web portal to all federal, state and local government web resources and services.